Time;durP1;ratioP1;P1;durP2;ratioP2;P2;SDS_P1;SDS_P2;PMS_P1;PMS_P2;Temp;Humidity;BMP_temperature;BMP_pressure;BME280_temperature;BME280_humidity;BME280_pressure;Samples;Min_cycle;Max_cycle;Signal;HPM_P1;HPM_P2
2023/04/16 00:00:06;;;;;;;7.03;3.63;;;;;;;12.86;100.00;100846.16;2520758;23;20482;-67
2023/04/16 00:01:07;;;;;;;8.60;3.40;;;;;;;13.56;100.00;100940.66;2520854;23;20182;-67
2023/04/16 00:02:07;;;;;;;7.27;4.20;;;;;;;13.52;100.00;100940.00;2519819;23;20458;-67
2023/04/16 00:03:07;;;;;;;9.33;5.10;;;;;;;13.50;100.00;100943.22;2520961;23;20158;-67
2023/04/16 00:04:08;;;;;;;13.47;5.73;;;;;;;13.48;100.00;100936.53;2520661;23;20160;-67
2023/04/16 00:05:08;;;;;;;11.80;5.87;;;;;;;13.48;100.00;100930.97;2520833;23;20151;-67
2023/04/16 00:06:11;;;;;;;11.10;5.63;;;;;;;12.98;100.00;100869.69;2520849;23;20163;-67
2023/04/16 00:07:11;;;;;;;11.80;6.10;;;;;;;13.01;100.00;100874.38;2521027;23;20216;-67
2023/04/16 00:08:12;;;;;;;10.97;5.83;;;;;;;13.37;100.00;100936.84;2520521;23;20383;-67
2023/04/16 00:09:12;;;;;;;7.07;4.40;;;;;;;13.39;100.00;100940.00;2520598;23;20625;-67
2023/04/16 00:10:13;;;;;;;14.03;5.43;;;;;;;13.30;100.00;100937.06;2520647;23;20156;-67
2023/04/16 00:11:14;;;;;;;12.10;5.50;;;;;;;13.33;100.00;100940.97;2520835;23;20493;-67
2023/04/16 00:12:14;;;;;;;11.30;5.77;;;;;;;13.32;100.00;100942.22;2519778;23;20179;-67
2023/04/16 00:13:15;;;;;;;8.80;5.53;;;;;;;13.29;100.00;100941.09;2520973;23;20169;-67
2023/04/16 00:14:15;;;;;;;9.87;5.90;;;;;;;13.26;100.00;100941.16;2520735;23;20664;-67
2023/04/16 00:15:15;;;;;;;12.13;6.00;;;;;;;13.25;100.00;100934.84;2520972;23;20179;-67
2023/04/16 00:16:16;;;;;;;7.73;5.37;;;;;;;13.26;100.00;100930.84;2520777;23;20155;-67
2023/04/16 00:17:17;;;;;;;11.90;6.17;;;;;;;13.18;100.00;100923.94;2521023;23;20151;-67
2023/04/16 00:18:18;;;;;;;12.13;6.23;;;;;;;13.23;100.00;100942.84;2520616;23;20502;-67
2023/04/16 00:19:18;;;;;;;10.17;5.93;;;;;;;13.24;100.00;100947.19;2520273;23;20178;-67
2023/04/16 00:20:19;;;;;;;12.77;6.30;;;;;;;13.22;100.00;100946.84;2520663;23;20379;-67
2023/04/16 00:21:20;;;;;;;8.67;5.83;;;;;;;13.21;100.00;100953.63;2520647;23;20308;-67
2023/04/16 00:22:20;;;;;;;10.27;5.90;;;;;;;13.16;100.00;100947.84;2507456;23;20444;-67
2023/04/16 00:23:21;;;;;;;10.03;6.07;;;;;;;13.15;100.00;100941.50;2508155;23;20616;-67
2023/04/16 00:24:21;;;;;;;12.20;5.90;;;;;;;12.92;100.00;100913.91;2520673;23;20672;-67
2023/04/16 00:25:21;;;;;;;11.23;6.00;;;;;;;13.15;100.00;100949.06;2520758;23;20155;-67
2023/04/16 00:26:22;;;;;;;11.90;6.17;;;;;;;13.16;100.00;100953.44;2520603;23;20155;-67
2023/04/16 00:27:22;;;;;;;10.50;5.63;;;;;;;13.03;100.00;100927.56;2520955;23;20560;-67
2023/04/16 00:28:23;;;;;;;6.77;4.60;;;;;;;13.18;100.00;100943.41;2520723;23;20187;-67
2023/04/16 00:29:23;;;;;;;8.20;4.80;;;;;;;13.23;100.00;100945.63;2520062;23;20610;-67
2023/04/16 00:30:24;;;;;;;8.43;4.90;;;;;;;12.46;100.00;100817.13;2520636;23;20224;-67
2023/04/16 00:31:32;;;;;;;10.30;5.07;;;;;;;13.24;100.00;100950.00;2520377;23;20186;-67
2023/04/16 00:32:33;;;;;;;10.43;4.80;;;;;;;13.21;100.00;100939.72;2520548;23;20171;-67
2023/04/16 00:33:33;;;;;;;10.57;5.47;;;;;;;13.27;100.00;100942.75;2520700;23;20376;-67
2023/04/16 00:34:33;;;;;;;8.90;5.20;;;;;;;13.29;100.00;100943.88;2508016;23;20234;-67
2023/04/16 00:35:34;;;;;;;11.30;5.23;;;;;;;13.29;100.00;100943.88;2508282;23;20495;-67
2023/04/16 00:36:34;;;;;;;8.70;5.57;;;;;;;13.25;100.00;100945.97;2520857;23;20155;-67
2023/04/16 00:37:35;;;;;;;11.67;5.83;;;;;;;13.29;100.00;100943.09;2520701;23;20548;-67
2023/04/16 00:38:35;;;;;;;9.70;5.77;;;;;;;12.07;100.00;100761.09;2520660;23;20155;-67
2023/04/16 00:39:54;;;;;;;10.13;5.77;;;;;;;13.21;100.00;100939.72;2519890;23;20190;-67
2023/04/16 00:40:57;;;;;;;11.00;5.33;;;;;;;13.26;100.00;100953.09;2520707;23;20143;-67
2023/04/16 00:41:58;;;;;;;9.37;4.80;;;;;;;13.26;100.00;100955.09;2519846;23;20386;-67
2023/04/16 00:42:58;;;;;;;8.90;4.30;;;;;;;13.23;100.00;100945.63;2520056;23;20888;-67
2023/04/16 00:43:58;;;;;;;5.30;3.50;;;;;;;12.80;100.00;100886.09;2520736;23;20154;-67
2023/04/16 00:44:59;;;;;;;7.27;3.60;;;;;;;13.19;100.00;100952.53;2520785;23;20152;-67
2023/04/16 00:46:00;;;;;;;6.27;3.50;;;;;;;13.16;100.00;100951.41;2520861;23;20684;-67
2023/04/16 00:47:02;;;;;;;5.77;3.60;;;;;;;12.40;100.00;100832.78;2520210;23;20189;-67
2023/04/16 00:48:03;;;;;;;7.67;3.17;;;;;;;13.15;100.00;100949.06;2520660;23;20654;-67
2023/04/16 00:49:03;;;;;;;5.50;2.80;;;;;;;13.16;100.00;100954.19;2520748;23;20744;-67
2023/04/16 00:50:04;;;;;;;5.70;2.80;;;;;;;12.72;100.00;100874.38;2519746;23;20375;-67
2023/04/16 00:51:06;;;;;;;4.70;2.73;;;;;;;13.17;100.00;100952.97;2520780;23;20511;-67
2023/04/16 00:52:06;;;;;;;5.13;2.57;;;;;;;13.12;100.00;100945.16;2519677;23;20419;-67
2023/04/16 00:53:07;;;;;;;7.20;2.90;;;;;;;13.19;100.00;100953.31;2520713;23;20432;-67
2023/04/16 00:54:08;;;;;;;5.03;2.70;;;;;;;13.24;100.00;100955.56;2520585;23;20523;-67
2023/04/16 00:55:12;;;;;;;4.23;2.73;;;;;;;13.25;100.00;100957.09;2520803;23;20164;-67
2023/04/16 00:56:12;;;;;;;5.53;2.57;;;;;;;13.31;100.00;100951.75;2520642;23;20613;-67
2023/04/16 00:57:13;;;;;;;6.37;2.53;;;;;;;13.38;100.00;100946.75;2520781;23;20816;-67
2023/04/16 00:58:14;;;;;;;5.77;2.60;;;;;;;13.41;100.00;100947.88;2520218;23;20621;-67
2023/04/16 00:59:15;;;;;;;6.67;2.77;;;;;;;13.46;100.00;100950.91;2520722;23;20499;-67
2023/04/16 01:00:15;;;;;;;6.97;2.87;;;;;;;13.51;100.00;100950.34;2519901;23;20639;-67
2023/04/16 01:01:16;;;;;;;5.63;3.10;;;;;;;13.52;100.00;100951.91;2520546;23;20151;-67
2023/04/16 01:02:17;;;;;;;4.43;2.70;;;;;;;12.94;100.00;100853.06;2519863;23;20230;-67
2023/04/16 01:03:17;;;;;;;5.03;2.87;;;;;;;13.56;100.00;100944.22;2520837;23;20155;-67
2023/04/16 01:04:17;;;;;;;6.50;2.60;;;;;;;13.29;100.00;100896.56;2520516;23;20181;-67
2023/04/16 01:05:19;;;;;;;4.97;2.67;;;;;;;13.56;100.00;100923.94;2520746;23;20151;-67
2023/04/16 01:06:19;;;;;;;4.37;2.30;;;;;;;13.69;100.00;100947.03;2520488;23;20689;-67
2023/04/16 01:07:20;;;;;;;5.07;2.87;;;;;;;13.72;100.00;100934.97;2520754;23;20850;-67
2023/04/16 01:08:20;;;;;;;5.17;2.97;;;;;;;13.76;100.00;100932.84;2520473;23;20190;-67
2023/04/16 01:09:21;;;;;;;6.43;2.90;;;;;;;13.13;100.00;100838.22;2520711;23;20152;-67
2023/04/16 01:10:21;;;;;;;5.23;2.60;;;;;;;13.84;100.00;100937.75;2520302;23;20510;-67
2023/04/16 01:11:23;;;;;;;4.70;2.60;;;;;;;12.77;100.00;100764.59;2519772;23;20235;-67
2023/04/16 01:12:23;;;;;;;6.57;2.83;;;;;;;13.84;100.00;100928.63;2520055;23;20183;-67
2023/04/16 01:13:23;;;;;;;5.03;3.23;;;;;;;13.92;100.00;100938.31;2520706;23;20380;-67
2023/04/16 01:14:24;;;;;;;7.80;3.03;;;;;;;13.96;100.00;100936.97;2520487;23;20504;-67
2023/04/16 01:15:24;;;;;;;4.37;2.80;;;;;;;13.91;100.00;100939.53;2520567;23;20203;-67
2023/04/16 01:16:25;;;;;;;4.53;2.77;;;;;;;13.60;100.00;100880.06;2520517;23;20182;-67
2023/04/16 01:17:26;;;;;;;5.57;2.40;;;;;;;13.26;100.00;100835.41;2520746;23;20168;-67
2023/04/16 01:18:26;;;;;;;3.77;2.47;;;;;;;13.88;100.00;100935.63;2520561;23;20157;-67
2023/04/16 01:19:27;;;;;;;4.70;2.63;;;;;;;13.87;100.00;100927.72;2520577;23;20180;-67
2023/04/16 01:20:28;;;;;;;7.87;2.67;;;;;;;13.92;100.00;100930.72;2520565;23;20187;-67
2023/04/16 01:21:30;;;;;;;5.13;2.57;;;;;;;13.98;100.00;100925.41;2519247;23;20379;-67
2023/04/16 01:22:30;;;;;;;5.17;2.70;;;;;;;13.96;100.00;100925.03;2520303;23;20151;-67
2023/04/16 01:23:31;;;;;;;7.23;3.00;;;;;;;13.89;100.00;100928.84;2520449;23;20446;-67
2023/04/16 01:24:32;;;;;;;7.20;2.83;;;;;;;13.90;100.00;100930.41;2520617;23;20156;-67
2023/04/16 01:25:33;;;;;;;5.83;3.07;;;;;;;13.84;100.00;100931.41;2520578;23;20549;-67
2023/04/16 01:26:33;;;;;;;4.50;2.90;;;;;;;13.87;100.00;100931.31;2520377;23;20443;-67
2023/04/16 01:27:34;;;;;;;4.63;2.60;;;;;;;13.87;100.00;100931.31;2520522;23;20204;-67
2023/04/16 01:28:35;;;;;;;5.83;2.43;;;;;;;13.88;100.00;100934.88;2520475;23;20208;-67
2023/04/16 01:29:35;;;;;;;6.87;2.83;;;;;;;13.87;100.00;100919.38;2520427;23;20178;-67
2023/04/16 01:30:36;;;;;;;5.83;2.80;;;;;;;13.83;100.00;100910.38;2520592;23;20148;-67
2023/04/16 01:31:36;;;;;;;6.23;2.80;;;;;;;13.96;100.00;100931.41;2518938;23;20164;-67
2023/04/16 01:32:37;;;;;;;4.57;3.00;;;;;;;13.99;100.00;100930.50;2520510;23;20614;-67
2023/04/16 01:33:37;;;;;;;4.27;2.63;;;;;;;13.68;100.00;100881.41;2520456;23;20401;-67
2023/04/16 01:34:38;;;;;;;6.20;2.77;;;;;;;14.01;100.00;100928.06;2520634;23;20149;-67
2023/04/16 01:35:39;;;;;;;5.23;3.10;;;;;;;13.96;100.00;100933.41;2520468;23;20588;-67
2023/04/16 01:36:40;;;;;;;5.07;2.87;;;;;;;13.98;100.00;100936.53;2520474;23;20297;-67
2023/04/16 01:37:40;;;;;;;5.67;3.23;;;;;;;13.96;100.00;100931.41;2520601;23;20379;-67
2023/04/16 01:38:41;;;;;;;7.93;3.00;;;;;;;13.77;100.00;100910.13;2520495;23;20179;-67
2023/04/16 01:39:41;;;;;;;5.70;3.03;;;;;;;13.97;100.00;100934.97;2520504;23;20588;-67
2023/04/16 01:40:42;;;;;;;6.03;2.80;;;;;;;13.98;100.00;100934.50;2520498;23;20147;-67
2023/04/16 01:41:42;;;;;;;6.87;3.20;;;;;;;13.99;100.00;100932.53;2519201;23;20226;-67
2023/04/16 01:42:43;;;;;;;4.53;2.60;;;;;;;14.02;100.00;100932.41;2520157;23;20153;-67
2023/04/16 01:43:43;;;;;;;7.97;3.30;;;;;;;13.99;100.00;100933.28;2520418;23;20159;-68
2023/04/16 01:44:46;;;;;;;5.93;2.60;;;;;;;13.95;100.00;100931.84;2520509;23;20211;-67
2023/04/16 01:45:46;;;;;;;4.77;2.80;;;;;;;13.96;100.00;100936.19;2520676;23;20499;-67
2023/04/16 01:46:47;;;;;;;5.00;2.80;;;;;;;13.93;100.00;100937.88;2520346;23;20418;-67
2023/04/16 01:47:50;;;;;;;4.93;2.80;;;;;;;13.29;100.00;100845.66;2520568;23;20358;-67
2023/04/16 01:48:53;;;;;;;4.90;3.00;;;;;;;13.91;100.00;100939.53;2520501;23;20161;-68
2023/04/16 01:49:54;;;;;;;7.87;3.23;;;;;;;13.92;100.00;100933.53;2520505;23;20724;-67
2023/04/16 01:50:54;;;;;;;10.83;2.93;;;;;;;13.91;100.00;100936.75;2520343;23;20407;-67
2023/04/16 01:51:55;;;;;;;4.43;2.90;;;;;;;13.88;100.00;100935.63;2519630;23;20159;-67
2023/04/16 01:52:55;;;;;;;5.97;3.00;;;;;;;13.87;100.00;100936.88;2519691;23;20163;-67
2023/04/16 01:53:57;;;;;;;6.27;3.13;;;;;;;13.89;100.00;100936.44;2520828;23;20152;-67
2023/04/16 01:54:57;;;;;;;4.83;3.10;;;;;;;13.88;100.00;100934.88;2520397;23;20158;-67
2023/04/16 01:55:57;;;;;;;5.40;3.00;;;;;;;13.86;100.00;100931.75;2520711;23;20936;-68
2023/04/16 01:56:58;;;;;;;6.43;3.10;;;;;;;13.83;100.00;100938.22;2520390;23;20157;-67
2023/04/16 01:57:58;;;;;;;6.57;3.27;;;;;;;13.83;100.00;100935.44;2520510;23;20177;-67
2023/04/16 01:58:59;;;;;;;10.17;2.93;;;;;;;13.84;100.00;100943.31;2520062;23;20197;-67
2023/04/16 01:59:59;;;;;;;5.73;3.10;;;;;;;13.65;100.00;100910.13;2520495;23;20522;-67
2023/04/16 02:01:00;;;;;;;4.80;3.23;;;;;;;13.76;100.00;100939.22;2520486;23;20205;-67
2023/04/16 02:02:11;;;;;;;7.43;3.23;;;;;;;13.22;100.00;100859.81;2519563;23;20166;-67
2023/04/16 02:03:12;;;;;;;5.00;2.80;;;;;;;13.77;100.00;100928.84;2519808;23;20444;-67
2023/04/16 02:04:12;;;;;;;6.50;3.40;;;;;;;13.74;100.00;100924.94;2520364;23;20379;-67
2023/04/16 02:05:13;;;;;;;5.87;2.97;;;;;;;13.74;100.00;100929.75;2520523;23;20484;-67
2023/04/16 02:06:13;;;;;;;5.20;2.53;;;;;;;13.75;100.00;100929.31;2520410;23;20151;-67
2023/04/16 02:07:14;;;;;;;4.77;2.80;;;;;;;13.75;100.00;100929.31;2520544;23;20218;-67
2023/04/16 02:08:14;;;;;;;5.77;2.90;;;;;;;13.73;100.00;100926.19;2520356;23;20152;-67
2023/04/16 02:09:15;;;;;;;5.80;2.90;;;;;;;13.21;100.00;100856.25;2520491;23;20507;-67
2023/04/16 02:10:15;;;;;;;6.83;2.80;;;;;;;13.71;100.00;100927.84;2520402;23;20171;-67
2023/04/16 02:11:16;;;;;;;6.50;2.90;;;;;;;12.78;100.00;100791.19;2520398;23;20164;-67
2023/04/16 02:12:16;;;;;;;7.67;3.27;;;;;;;13.68;100.00;100925.97;2519456;23;20579;-67
2023/04/16 02:13:17;;;;;;;4.03;2.60;;;;;;;13.71;100.00;100928.63;2520055;23;20242;-67
2023/04/16 02:14:17;;;;;;;4.27;2.63;;;;;;;13.71;100.00;100934.22;2520452;23;20158;-67
2023/04/16 02:15:18;;;;;;;5.57;2.17;;;;;;;13.70;100.00;100927.09;2520579;23;20157;-67
2023/04/16 02:16:18;;;;;;;5.87;2.67;;;;;;;13.71;100.00;100927.84;2520362;23;20158;-67
2023/04/16 02:17:19;;;;;;;7.37;2.73;;;;;;;13.68;100.00;100926.72;2520573;23;20163;-67
2023/04/16 02:18:19;;;;;;;4.70;2.63;;;;;;;13.68;100.00;100926.72;2520237;23;20162;-67
2023/04/16 02:19:20;;;;;;;6.03;3.47;;;;;;;13.64;100.00;100917.72;2520438;23;20158;-67
2023/04/16 02:20:21;;;;;;;7.93;3.43;;;;;;;13.57;100.00;100923.50;2520227;23;20165;-67
2023/04/16 02:21:21;;;;;;;6.97;3.20;;;;;;;13.47;100.00;100913.47;2520305;23;20178;-67
2023/04/16 02:22:22;;;;;;;5.20;3.07;;;;;;;13.47;100.00;100923.84;2520078;23;20196;-67
2023/04/16 02:23:22;;;;;;;4.90;2.77;;;;;;;13.46;100.00;100917.50;2520361;23;20506;-67
2023/04/16 02:24:23;;;;;;;7.00;3.27;;;;;;;13.43;100.00;100921.16;2519721;23;20155;-68
2023/04/16 02:25:23;;;;;;;6.10;3.00;;;;;;;13.20;100.00;100884.50;2520381;23;20151;-67
2023/04/16 02:26:25;;;;;;;8.17;3.47;;;;;;;13.05;100.00;100872.25;2520052;23;20480;-67
2023/04/16 02:27:25;;;;;;;8.23;3.03;;;;;;;13.31;100.00;100916.38;2520566;23;20159;-67
2023/04/16 02:28:26;;;;;;;6.47;3.30;;;;;;;13.30;100.00;100925.16;2520438;23;20871;-67
2023/04/16 02:29:26;;;;;;;7.23;3.23;;;;;;;13.31;100.00;100910.81;2520423;23;20158;-67
2023/04/16 02:30:27;;;;;;;6.43;2.93;;;;;;;13.31;100.00;100918.34;2520286;23;20185;-67
2023/04/16 02:31:27;;;;;;;7.17;3.40;;;;;;;13.24;100.00;100913.00;2519995;23;20151;-67
2023/04/16 02:32:28;;;;;;;7.93;3.33;;;;;;;13.23;100.00;100920.56;2520030;23;20203;-67
2023/04/16 02:33:30;;;;;;;7.97;3.20;;;;;;;12.88;100.00;100868.75;2520359;23;20152;-67
2023/04/16 02:34:32;;;;;;;7.63;3.23;;;;;;;13.19;100.00;100914.34;2519614;23;20171;-67
2023/04/16 02:35:37;;;;;;;5.73;2.70;;;;;;;13.06;100.00;100890.53;2520477;23;20386;-67
2023/04/16 02:36:37;;;;;;;4.83;2.80;;;;;;;13.20;100.00;100921.47;2520514;23;20721;-67
2023/04/16 02:37:39;;;;;;;6.83;2.80;;;;;;;13.08;100.00;100904.75;2520713;23;20425;-67
2023/04/16 02:38:40;;;;;;;6.07;3.30;;;;;;;13.20;100.00;100918.69;2520653;23;20152;-67
2023/04/16 02:39:41;;;;;;;8.13;3.40;;;;;;;13.16;100.00;100923.56;2520337;23;20385;-67
2023/04/16 02:40:42;;;;;;;6.90;3.30;;;;;;;13.11;100.00;100920.56;2520341;23;20175;-67
2023/04/16 02:41:43;;;;;;;5.80;3.13;;;;;;;13.10;100.00;100919.78;2519682;23;20381;-67
2023/04/16 02:42:43;;;;;;;5.90;3.50;;;;;;;13.08;100.00;100925.03;2520478;23;20401;-67
2023/04/16 02:43:44;;;;;;;8.33;3.30;;;;;;;13.10;100.00;100921.78;2520386;23;20149;-67
2023/04/16 02:44:44;;;;;;;7.37;3.50;;;;;;;12.68;100.00;100845.09;2519717;23;20174;-67
2023/04/16 02:45:44;;;;;;;6.50;3.33;;;;;;;13.11;100.00;100921.34;2520402;23;20150;-67
2023/04/16 02:46:45;;;;;;;5.60;3.40;;;;;;;13.02;100.00;100923.22;2520267;23;20151;-67
2023/04/16 02:47:46;;;;;;;6.47;3.33;;;;;;;12.99;100.00;100921.31;2520249;23;20193;-67
2023/04/16 02:48:47;;;;;;;5.43;3.53;;;;;;;13.03;100.00;100922.78;2520304;23;20235;-67
2023/04/16 02:49:47;;;;;;;6.17;3.57;;;;;;;13.01;100.00;100910.53;2520371;23;20393;-67
2023/04/16 02:50:47;;;;;;;6.33;3.03;;;;;;;13.00;100.00;100917.31;2520602;23;20155;-67
2023/04/16 02:51:48;;;;;;;6.73;3.20;;;;;;;12.94;100.00;100908.72;2519480;23;20227;-67
2023/04/16 02:52:50;;;;;;;5.20;3.30;;;;;;;12.40;100.00;100816.13;2520389;23;20178;-67
2023/04/16 02:53:50;;;;;;;7.93;3.47;;;;;;;13.05;100.00;100917.53;2520243;23;20632;-67
2023/04/16 02:54:51;;;;;;;6.63;3.57;;;;;;;13.08;100.00;100913.09;2519649;23;20800;-67
2023/04/16 02:55:52;;;;;;;6.60;3.17;;;;;;;13.05;100.00;100906.41;2520423;23;20209;-67
2023/04/16 02:56:53;;;;;;;8.30;3.67;;;;;;;13.11;100.00;100913.00;2520481;23;20506;-67
2023/04/16 02:57:53;;;;;;;6.93;3.50;;;;;;;13.10;100.00;100905.09;2520409;23;20452;-67
2023/04/16 02:58:54;;;;;;;7.93;3.50;;;;;;;13.17;100.00;100910.47;2520022;23;20277;-67
2023/04/16 02:59:54;;;;;;;6.90;3.10;;;;;;;13.14;100.00;100908.53;2520210;23;20232;-67
2023/04/16 03:00:55;;;;;;;6.40;3.40;;;;;;;13.23;100.00;100917.03;2520168;23;20190;-67
2023/04/16 03:01:55;;;;;;;7.57;3.40;;;;;;;13.25;100.00;100918.16;2519566;23;20156;-67
2023/04/16 03:02:56;;;;;;;6.10;3.17;;;;;;;12.84;100.00;100859.72;2520352;23;20159;-67
2023/04/16 03:03:56;;;;;;;4.50;3.20;;;;;;;13.11;100.00;100901.09;2520515;23;20208;-67
2023/04/16 03:04:56;;;;;;;7.73;3.30;;;;;;;13.31;100.00;100918.34;2519776;23;20554;-67
2023/04/16 03:05:57;;;;;;;10.63;3.70;;;;;;;13.33;100.00;100921.50;2520330;23;20609;-67
2023/04/16 03:06:57;;;;;;;6.17;3.30;;;;;;;13.32;100.00;100917.16;2520314;23;20469;-67
2023/04/16 03:07:58;;;;;;;6.00;3.27;;;;;;;13.33;100.00;100910.34;2507720;23;20233;-67
2023/04/16 03:08:58;;;;;;;4.80;3.20;;;;;;;13.17;100.00;100893.75;2507480;23;20162;-67
2023/04/16 03:09:59;;;;;;;6.80;2.93;;;;;;;12.98;100.00;100864.91;2520762;23;20168;-67
2023/04/16 03:10:59;;;;;;;7.20;3.63;;;;;;;13.29;100.00;100916.03;2520954;23;20154;-67
2023/04/16 03:12:03;;;;;;;5.27;2.93;;;;;;;13.20;100.00;100901.19;2520256;23;20162;-67
2023/04/16 03:13:04;;;;;;;6.97;3.17;;;;;;;13.22;100.00;100901.56;2521296;23;20156;-67
2023/04/16 03:14:04;;;;;;;5.73;2.87;;;;;;;13.24;100.00;100910.22;2520858;23;20386;-67
2023/04/16 03:15:05;;;;;;;5.53;3.13;;;;;;;13.26;100.00;100918.91;2520932;23;20656;-67
2023/04/16 03:16:05;;;;;;;5.50;2.73;;;;;;;13.23;100.00;100909.44;2520654;23;20570;-67
2023/04/16 03:17:06;;;;;;;6.33;3.47;;;;;;;13.05;100.00;100894.50;2521100;23;20329;-68
2023/04/16 03:18:06;;;;;;;6.27;3.07;;;;;;;13.19;100.00;100919.91;2520991;23;20182;-67
2023/04/16 03:19:07;;;;;;;7.00;2.80;;;;;;;13.17;100.00;100916.03;2521151;23;20238;-67
2023/04/16 03:20:09;;;;;;;6.27;3.10;;;;;;;13.18;100.00;100920.34;2508214;23;20169;-67
2023/04/16 03:21:09;;;;;;;8.90;3.20;;;;;;;13.18;100.00;100917.56;2508701;23;20181;-67
2023/04/16 03:22:09;;;;;;;10.33;3.43;;;;;;;13.21;100.00;100927.84;2520286;23;20386;-67
2023/04/16 03:23:10;;;;;;;9.40;3.73;;;;;;;13.14;100.00;100917.69;2520983;23;20240;-67
2023/04/16 03:24:10;;;;;;;7.73;3.80;;;;;;;13.21;100.00;100930.63;2508178;23;20227;-67
2023/04/16 03:25:11;;;;;;;10.37;3.60;;;;;;;13.22;100.00;100929.38;2508427;23;20603;-67
2023/04/16 03:26:11;;;;;;;9.70;3.10;;;;;;;13.22;100.00;100927.38;2520169;23;20162;-67
2023/04/16 03:27:12;;;;;;;7.57;3.03;;;;;;;13.22;100.00;100929.38;2521088;23;20239;-67
2023/04/16 03:28:13;;;;;;;6.27;3.53;;;;;;;13.20;100.00;100929.81;2520947;23;20158;-67
2023/04/16 03:29:14;;;;;;;6.20;3.20;;;;;;;13.16;100.00;100920.03;2521117;23;20221;-67
2023/04/16 03:30:15;;;;;;;6.57;3.40;;;;;;;13.18;100.00;100929.50;2520723;23;20750;-67
2023/04/16 03:31:15;;;;;;;7.53;3.10;;;;;;;12.23;100.00;100788.81;2521229;23;20620;-67
2023/04/16 03:32:16;;;;;;;6.20;2.93;;;;;;;13.17;100.00;100935.50;2507489;23;20769;-67
2023/04/16 03:33:17;;;;;;;5.20;3.20;;;;;;;13.07;100.00;100933.81;2508565;23;20235;-67
2023/04/16 03:34:17;;;;;;;4.57;2.87;;;;;;;13.09;100.00;100934.13;2520924;23;20154;-67
2023/04/16 03:35:18;;;;;;;6.47;3.20;;;;;;;13.07;100.00;100936.59;2520988;23;20187;-67
2023/04/16 03:36:18;;;;;;;4.93;3.27;;;;;;;13.04;100.00;100929.91;2520279;23;20159;-67
2023/04/16 03:37:19;;;;;;;6.57;3.50;;;;;;;13.03;100.00;100935.91;2521059;23;20159;-67
2023/04/16 03:38:19;;;;;;;5.00;3.00;;;;;;;13.03;100.00;100947.03;2520858;23;20186;-67
2023/04/16 03:39:19;;;;;;;4.87;2.97;;;;;;;13.03;100.00;100941.47;2521099;23;20155;-67
2023/04/16 03:40:20;;;;;;;5.97;3.30;;;;;;;13.00;100.00;100942.34;2520942;23;20451;-67
2023/04/16 03:41:20;;;;;;;7.00;3.23;;;;;;;12.97;100.00;100932.09;2520759;23;20156;-67
2023/04/16 03:42:21;;;;;;;8.60;3.17;;;;;;;12.44;100.00;100871.59;2520378;23;20186;-67
2023/04/16 03:43:21;;;;;;;6.90;2.87;;;;;;;13.00;100.00;100939.56;2521154;23;20233;-67
2023/04/16 03:44:22;;;;;;;5.03;3.03;;;;;;;12.99;100.00;100947.13;2508020;23;20239;-67
2023/04/16 03:45:22;;;;;;;7.43;2.83;;;;;;;13.01;100.00;100941.13;2508400;23;20239;-67
2023/04/16 03:46:23;;;;;;;6.83;3.00;;;;;;;12.96;100.00;100934.09;2520193;23;20185;-67
2023/04/16 03:47:23;;;;;;;5.33;2.83;;;;;;;13.01;100.00;100938.34;2520909;23;20158;-67
2023/04/16 03:48:24;;;;;;;4.13;2.20;;;;;;;13.04;100.00;100943.03;2520849;23;20185;-67
2023/04/16 03:49:24;;;;;;;5.30;2.80;;;;;;;12.52;100.00;100861.84;2521010;23;20179;-67
2023/04/16 03:50:25;;;;;;;4.80;2.47;;;;;;;13.05;100.00;100941.78;2520731;23;20162;-67
2023/04/16 03:51:25;;;;;;;6.87;2.70;;;;;;;13.04;100.00;100945.81;2520432;23;20205;-67
2023/04/16 03:52:27;;;;;;;4.03;2.37;;;;;;;13.02;100.00;100943.47;2507627;23;20691;-67
2023/04/16 03:53:27;;;;;;;5.83;2.50;;;;;;;12.99;100.00;100946.34;2508499;23;20645;-67
2023/04/16 03:54:27;;;;;;;4.83;2.20;;;;;;;12.95;100.00;100932.50;2520928;23;20719;-67
2023/04/16 03:55:28;;;;;;;5.80;2.10;;;;;;;13.01;100.00;100941.13;2520928;23;20165;-67
2023/04/16 03:56:28;;;;;;;5.10;2.20;;;;;;;12.96;100.00;100938.91;2520825;23;20623;-67
2023/04/16 03:57:29;;;;;;;5.87;2.60;;;;;;;13.02;100.00;100943.47;2520390;23;20550;-67
2023/04/16 03:58:30;;;;;;;3.80;2.40;;;;;;;12.99;100.00;100944.34;2520467;23;20284;-67
2023/04/16 03:59:30;;;;;;;8.63;2.73;;;;;;;13.01;100.00;100941.91;2520923;23;20150;-67
2023/04/16 04:00:31;;;;;;;3.97;2.23;;;;;;;12.98;100.00;100945.59;2520807;23;20148;-67
2023/04/16 04:01:31;;;;;;;4.70;2.63;;;;;;;12.98;100.00;100948.38;2520146;23;20157;-67
2023/04/16 04:02:31;;;;;;;4.30;2.43;;;;;;;12.96;100.00;100945.22;2521002;23;20226;-67
2023/04/16 04:03:32;;;;;;;5.10;2.60;;;;;;;12.97;100.00;100949.56;2520816;23;20153;-67
2023/04/16 04:04:32;;;;;;;6.43;2.33;;;;;;;12.99;100.00;100946.34;2520819;23;20187;-67
2023/04/16 04:05:40;;;;;;;5.73;2.53;;;;;;;12.91;100.00;100951.31;2520720;23;20491;-67
2023/04/16 04:06:40;;;;;;;7.43;2.60;;;;;;;12.83;100.00;100949.94;2520754;23;20315;-67
2023/04/16 04:07:40;;;;;;;6.23;2.73;;;;;;;12.50;100.00;100898.41;2520133;23;20386;-67
2023/04/16 04:08:41;;;;;;;5.53;2.87;;;;;;;12.75;100.00;100936.69;2520727;23;20151;-67
2023/04/16 04:09:42;;;;;;;4.33;2.27;;;;;;;12.84;100.00;100954.28;2520791;23;20561;-67
2023/04/16 04:10:42;;;;;;;4.70;2.40;;;;;;;12.48;100.00;100906.44;2508004;23;20155;-67
2023/04/16 04:11:43;;;;;;;3.97;2.33;;;;;;;12.87;100.00;100953.38;2507378;23;20153;-67
2023/04/16 04:12:43;;;;;;;6.33;2.17;;;;;;;12.82;100.00;100951.16;2520674;23;20200;-67
2023/04/16 04:13:44;;;;;;;5.80;2.50;;;;;;;12.77;100.00;100957.28;2520661;23;20176;-67
2023/04/16 04:14:44;;;;;;;7.43;2.63;;;;;;;12.77;100.00;100956.47;2520774;23;20179;-67
2023/04/16 04:15:45;;;;;;;10.30;3.27;;;;;;;12.78;100.00;100963.59;2520843;23;20154;-67
2023/04/16 04:16:45;;;;;;;12.73;3.33;;;;;;;12.79;100.00;100965.16;2520954;23;20174;-67
2023/04/16 04:17:46;;;;;;;11.77;3.23;;;;;;;12.77;100.00;100971.19;2520022;23;20158;-67
2023/04/16 04:18:46;;;;;;;13.10;3.10;;;;;;;12.72;100.00;100952.25;2520679;23;20187;-67
2023/04/16 04:19:47;;;;;;;10.13;2.63;;;;;;;12.75;100.00;100958.94;2520654;23;20153;-67
2023/04/16 04:20:47;;;;;;;5.73;2.43;;;;;;;12.81;100.00;100968.31;2520718;23;20195;-67
2023/04/16 04:21:47;;;;;;;6.23;2.87;;;;;;;12.80;100.00;100963.97;2519575;23;20158;-67
2023/04/16 04:22:49;;;;;;;5.90;2.80;;;;;;;12.80;100.00;100959.16;2520778;23;20211;-67
2023/04/16 04:23:49;;;;;;;8.23;3.00;;;;;;;12.76;100.00;100963.28;2520935;23;20158;-67
2023/04/16 04:24:50;;;;;;;7.63;3.20;;;;;;;12.76;100.00;100966.06;2520750;23;20467;-67
2023/04/16 04:25:50;;;;;;;5.83;2.90;;;;;;;12.75;100.00;100970.06;2520723;23;20507;-67
2023/04/16 04:26:50;;;;;;;6.40;3.40;;;;;;;12.79;100.00;100965.94;2520613;23;20181;-67
2023/04/16 04:27:51;;;;;;;6.80;3.13;;;;;;;12.82;100.00;100964.28;2520320;23;20183;-67
2023/04/16 04:28:51;;;;;;;6.37;3.20;;;;;;;12.84;100.00;100970.97;2520590;23;20164;-67
2023/04/16 04:29:52;;;;;;;5.37;3.10;;;;;;;12.86;100.00;100967.75;2520861;23;20497;-67
2023/04/16 04:30:52;;;;;;;4.87;3.13;;;;;;;12.87;100.00;100970.09;2520648;23;20175;-67
2023/04/16 04:31:54;;;;;;;7.10;3.13;;;;;;;12.90;100.00;100960.88;2519870;23;20191;-67
2023/04/16 04:32:54;;;;;;;6.33;3.30;;;;;;;11.88;100.00;100798.91;2520718;23;20509;-67
2023/04/16 04:33:54;;;;;;;6.37;2.90;;;;;;;12.97;100.00;100974.59;2520622;23;20384;-67
2023/04/16 04:34:55;;;;;;;6.63;3.53;;;;;;;12.99;100.00;100969.41;2520458;23;20247;-67
2023/04/16 04:35:56;;;;;;;4.97;2.50;;;;;;;12.97;100.00;100957.16;2520890;23;20151;-67
2023/04/16 04:36:56;;;;;;;5.83;3.20;;;;;;;13.04;100.00;100977.19;2520824;23;20229;-67
2023/04/16 04:37:56;;;;;;;6.50;3.27;;;;;;;13.10;100.00;100967.09;2520854;23;20601;-67
2023/04/16 04:38:57;;;;;;;7.30;2.60;;;;;;;13.16;100.00;100978.47;2519780;23;20154;-67